Latest Weather Observations for Mackay

IDQ60801

Issued at 7:05 am EST Thursday 23 October 2014 (issued every 30 minutes, with the page automatically refreshed every 10 minutes)

About weather observations | Map of weather stations | Latest weather observations for QLD | Other Formats
Station Details ID: 033119 Name: MACKAY M.O Lat: -21.12 Lon: 149.22 Height: 30.26 m
Data from the previous 72 hours. | See also: Recent months at Mackay
Date/Time
EST
Temp
°C
App
Temp
°C
Dew
Point
Rel
Hum
%
Delta-T
°C
Wind Press
QNH
hPa
Press
MSL
hPa
Rain
since 9 am
mm
Dir
 
Spd
km/h
Gust
km/h
Spd
kts
Gust
kts
23/07:00am 21.2 20.7 17.8 81 2.1 S 17 24 9 13 1019.7 1019.5 0.0
23/06:30am 19.2 18.2 16.7 85 1.5 S 17 22 9 12 1019.6 1019.4 0.0
23/06:00am 17.8 17.0 16.1 90 1.0 S 15 19 8 10 1019.5 1019.3 0.0
23/05:30am 17.5 16.8 15.4 87 1.2 SSW 13 17 7 9 1019.3 1019.1 0.0
23/05:00am 18.2 17.3 15.8 86 1.4 SSW 15 19 8 10 1019.0 1018.8 0.0
23/04:30am 17.6 17.0 15.7 89 1.1 SSW 13 17 7 9 1018.9 1018.7 0.0
23/04:00am 18.9 18.6 16.4 85 1.5 S 13 17 7 9 1018.8 1018.6 0.0
23/03:30am 19.9 19.4 16.0 78 2.3 S 13 20 7 11 1018.8 1018.6 0.0
23/03:00am 21.4 21.2 16.6 74 2.9 SE 13 20 7 11 1018.9 1018.7 0.0
23/02:30am 21.5 20.7 16.2 72 3.2 SE 15 22 8 12 1019.1 1018.9 0.0
23/02:00am 21.7 21.4 16.4 72 3.2 SE 13 20 7 11 1019.4 1019.2 0.0
23/01:30am 22.0 22.0 17.1 74 3.0 SE 13 22 7 12 1019.8 1019.6 0.0
23/01:00am 22.1 21.2 16.9 72 3.2 ESE 17 24 9 13 1020.2 1020.0 0.0
23/12:30am 22.3 21.6 16.5 69 3.5 E 15 22 8 12 1020.5 1020.3 0.0
23/12:00am 22.2 21.2 15.7 66 3.9 E 15 24 8 13 1020.8 1020.6 0.0
 
Date/Time
EST
Temp
°C
App
Temp
°C
Dew
Point
Rel
Hum
%
Delta-T
°C
Wind Press
QNH
hPa
Press
MSL
hPa
Rain
since 9 am
mm
Dir
 
Spd
km/h
Gust
km/h
Spd
kts
Gust
kts
22/11:30pm 22.1 21.5 15.6 66 3.9 E 13 26 7 14 1020.9 1020.7 0.0
22/11:00pm 22.3 21.5 16.2 68 3.7 ESE 15 24 8 13 1021.0 1020.8 0.0
22/10:30pm 22.5 20.6 15.1 63 4.4 ESE 19 28 10 15 1021.0 1020.8 0.0
22/10:00pm 22.5 20.9 14.9 62 4.5 ESE 17 30 9 16 1020.9 1020.7 0.0
22/09:30pm 22.4 20.8 15.0 63 4.4 ESE 17 28 9 15 1020.8 1020.6 0.0
22/09:00pm 22.4 20.2 14.8 62 4.5 ESE 20 32 11 17 1020.7 1020.5 0.0
22/08:30pm 22.4 20.2 15.0 63 4.4 ESE 20 35 11 19 1020.5 1020.3 0.0
22/08:00pm 22.3 20.3 15.4 65 4.1 ESE 20 35 11 19 1020.3 1020.1 0.0
22/07:30pm 22.3 20.5 15.4 65 4.1 ESE 19 32 10 17 1020.1 1019.9 0.0
22/07:00pm 22.2 21.0 16.1 68 3.7 ESE 17 28 9 15 1020.0 1019.8 0.0
22/06:30pm 22.3 20.7 16.5 69 3.5 E 20 32 11 17 1019.8 1019.6 0.0
22/06:00pm 22.6 21.7 16.9 70 3.5 ESE 17 30 9 16 1019.6 1019.4 0.0
22/05:30pm 23.0 22.0 16.6 67 3.9 ESE 17 33 9 18 1019.4 1019.2 0.0
22/05:00pm 23.7 22.1 16.1 62 4.6 ESE 19 30 10 16 1019.1 1018.9 0.0
22/04:30pm 24.1 22.7 16.6 63 4.6 SE 19 32 10 17 1019.0 1018.8 0.0
22/04:00pm 24.5 22.7 15.4 57 5.5 ESE 19 26 10 14 1018.7 1018.5 0.0
22/03:30pm 24.7 23.1 16.0 58 5.3 ESE 19 28 10 15 1018.6 1018.4 0.0
22/03:00pm 24.9 23.4 16.8 60 5.0 ESE 20 32 11 17 1018.8 1018.6 0.0
22/02:30pm 25.3 24.3 17.6 62 4.8 SE 19 35 10 19 1019.0 1018.8 0.0
22/02:00pm 25.6 24.4 17.4 60 5.1 SE 20 32 11 17 1019.4 1019.2 0.0
22/01:30pm 26.4 25.5 17.8 59 5.4 SE 19 33 10 18 1019.6 1019.4 0.0
22/01:00pm 26.1 25.2 17.8 60 5.2 SE 19 32 10 17 1019.9 1019.7 0.0
22/12:30pm 26.0 24.7 17.3 58 5.4 SE 20 30 11 16 1020.3 1020.1 0.0
22/12:00pm 25.5 25.1 18.0 63 4.7 SE 17 28 9 15 1020.8 1020.6 0.0
22/11:30am 26.7 25.8 16.9 55 6.1 SE 17 24 9 13 1021.1 1020.9 0.0
22/11:00am 26.1 24.7 16.5 55 5.9 SE 19 28 10 15 1021.5 1021.3 0.0
22/10:30am 25.7 24.2 16.4 56 5.7 SE 19 28 10 15 1021.8 1021.6 0.0
22/10:00am 25.3 23.7 15.9 56 5.7 SE 19 28 10 15 1021.9 1021.7 0.0
22/09:30am 24.3 23.2 16.3 61 4.9 ESE 17 28 9 15 1022.0 1021.8 0.0
22/09:00am 24.8 23.2 14.9 54 5.9 ESE 17 28 9 15 1022.0 1021.8 0.2
22/08:30am 25.0 23.5 15.2 54 5.9 ESE 17 30 9 16 1022.1 1021.9 0.2
22/08:00am 23.8 21.9 14.3 55 5.6 ESE 17 28 9 15 1021.8 1021.6 0.2
22/07:30am 23.7 21.2 14.0 54 5.7 ESE 20 39 11 21 1021.6 1021.4 0.2
22/07:00am 23.4 21.5 15.2 60 4.9 ESE 19 30 10 16 1021.4 1021.2 0.2
22/06:30am 22.7 20.7 15.5 64 4.3 ESE 20 33 11 18 1021.1 1020.9 0.2
22/06:00am 22.2 20.1 15.3 65 4.1 ESE 20 32 11 17 1020.8 1020.6 0.2
22/05:30am 21.8 19.3 15.2 66 3.9 SE 22 35 12 19 1020.4 1020.2 0.2
22/05:00am 22.0 19.4 14.9 64 4.2 ESE 22 33 12 18 1020.3 1020.1 0.2
22/04:30am 21.8 19.7 15.2 66 3.9 ESE 20 32 11 17 1020.3 1020.1 0.2
22/04:00am 21.7 19.7 15.5 68 3.7 ESE 20 35 11 19 1020.2 1020.0 0.2
22/03:30am 21.5 19.4 15.3 68 3.7 SE 20 30 11 16 1020.3 1020.1 0.2
22/03:00am 21.6 18.8 15.4 68 3.7 SE 24 33 13 18 1020.2 1020.0 0.2
22/02:30am 21.6 18.9 15.6 68 3.6 SE 24 37 13 20 1020.3 1020.1 0.2
22/02:00am 21.8 19.9 15.8 68 3.6 SE 20 35 11 19 1020.5 1020.3 0.2
22/01:30am 21.8 20.1 16.2 70 3.4 SE 20 35 11 19 1021.0 1020.8 0.2
22/01:00am 21.9 19.7 15.9 68 3.6 SE 22 32 12 17 1021.4 1021.2 0.2
22/12:30am 22.0 19.8 16.0 68 3.6 SE 22 37 12 20 1021.7 1021.5 0.2
22/12:00am 21.9 20.0 15.7 68 3.7 SE 20 39 11 21 1022.1 1021.9 0.2
 
Date/Time
EST
Temp
°C
App
Temp
°C
Dew
Point
Rel
Hum
%
Delta-T
°C
Wind Press
QNH
hPa
Press
MSL
hPa
Rain
since 9 am
mm
Dir
 
Spd
km/h
Gust
km/h
Spd
kts
Gust
kts
21/11:30pm 21.9 19.5 15.5 67 3.8 SE 22 37 12 20 1022.5 1022.3 0.2
21/11:00pm 22.0 20.1 16.6 71 3.3 SE 22 35 12 19 1022.5 1022.3 0.2
21/10:30pm 22.0 19.6 16.4 70 3.4 SE 24 35 13 19 1022.6 1022.4 0.2
21/10:00pm 22.0 19.4 16.0 68 3.6 SE 24 39 13 21 1022.6 1022.4 0.2
21/09:30pm 22.1 20.2 16.7 71 3.3 SE 22 37 12 20 1022.5 1022.3 0.2
21/09:00pm 22.2 20.0 16.8 71 3.3 ESE 24 41 13 22 1022.4 1022.2 0.2
21/08:30pm 22.2 20.3 16.6 70 3.4 SE 22 35 12 19 1022.2 1022.0 0.2
21/08:00pm 22.1 20.6 16.7 71 3.3 SE 20 33 11 18 1022.0 1021.8 0.2
21/07:30pm 22.2 20.3 16.8 71 3.3 SE 22 35 12 19 1021.9 1021.7 0.2
21/07:00pm 22.4 20.2 17.0 71 3.3 SE 24 39 13 21 1021.7 1021.5 0.2
21/06:30pm 22.5 19.3 16.2 67 3.8 ESE 28 39 15 21 1021.4 1021.2 0.2
21/06:00pm 22.6 20.4 16.9 70 3.5 ESE 24 37 13 20 1021.1 1020.9 0.2
21/05:30pm 22.9 20.9 16.5 67 3.9 ESE 22 35 12 19 1020.8 1020.6 0.2
21/05:00pm 23.3 21.7 16.6 66 4.1 SE 20 37 11 20 1020.6 1020.4 0.2
21/04:30pm 23.3 21.3 16.4 65 4.2 SE 22 32 12 17 1020.4 1020.2 0.2
21/04:00pm 24.0 22.5 16.8 64 4.4 ESE 20 33 11 18 1020.3 1020.1 0.2
21/03:30pm 24.1 22.2 16.6 63 4.6 SE 22 33 12 18 1020.3 1020.1 0.2
21/03:00pm 25.1 23.5 16.6 59 5.2 SE 20 35 11 19 1020.3 1020.1 0.2
21/02:30pm 24.4 22.8 17.5 65 4.3 SE 22 35 12 19 1020.5 1020.3 0.2
21/02:00pm 23.7 22.6 17.8 69 3.7 SE 20 33 11 18 1020.9 1020.7 0.2
21/01:30pm 20.8 21.2 19.1 90 1.1 ENE 15 24 8 13 1021.5 1021.3 0.2
21/01:00pm 21.9 20.5 17.9 78 2.5 SE 22 39 12 21 1021.7 1021.5 0.0
21/12:30pm 23.3 22.1 17.5 70 3.6 ESE 20 33 11 18 1022.0 1021.8 0.0
21/12:00pm 25.2 23.2 16.4 58 5.4 SSE 22 35 12 19 1022.1 1021.9 0.0
21/11:30am 26.2 24.1 15.1 50 6.7 SE 20 33 11 18 1022.4 1022.2 0.0
21/11:00am 26.5 24.3 15.0 49 6.9 SE 20 33 11 18 1022.5 1022.3 0.0
21/10:30am 26.0 23.7 14.6 49 6.8 SE 20 33 11 18 1022.7 1022.5 0.0
21/10:00am 25.5 22.4 13.5 47 7.0 SE 22 37 12 20 1022.7 1022.5 0.0
21/09:30am 25.2 22.3 14.0 49 6.6 SE 22 33 12 18 1022.4 1022.2 0.0
21/09:00am 25.1 23.0 14.7 52 6.2 ESE 19 30 10 16 1022.5 1022.3 0.4
21/08:30am 25.0 23.1 14.2 51 6.4 SE 17 30 9 16 1022.2 1022.0 0.2
21/08:00am 22.6 21.4 17.4 72 3.2 S 20 32 11 17 1022.3 1022.1 0.2
21/07:30am 22.2 21.4 18.0 77 2.6 S 19 28 10 15 1021.9 1021.7 0.2
21/07:00am 22.9 21.4 17.7 72 3.2 SE 22 33 12 18 1021.5 1021.3 0.2
21/06:30am 21.8 20.6 17.6 77 2.6 SE 20 33 11 18 1021.0 1020.8 0.2
21/06:00am 20.8 20.2 17.5 81 2.0 SE 17 30 9 16 1020.7 1020.5 0.2
21/05:30am 21.4 20.1 17.3 77 2.5 SE 20 41 11 22 1020.4 1020.2 0.0
21/05:00am 21.6 20.3 15.7 69 3.5 SE 17 28 9 15 1020.0 1019.8 0.0
21/04:30am 21.8 20.5 15.8 68 3.6 SE 17 28 9 15 1019.9 1019.7 0.0
21/04:00am 22.0 20.7 14.9 64 4.2 ESE 15 22 8 12 1019.8 1019.6 0.0
21/03:30am 21.7 19.9 14.5 63 4.2 ESE 17 26 9 14 1019.9 1019.7 0.0
21/03:00am 21.7 20.3 15.5 68 3.7 ESE 17 26 9 14 1019.8 1019.6 0.0
21/02:30am 21.8 19.9 15.2 66 3.9 SE 19 30 10 16 1019.9 1019.7 0.0
21/02:00am 21.6 20.1 15.2 67 3.8 SE 17 28 9 15 1019.9 1019.7 0.0
21/01:30am 21.9 20.4 15.3 66 3.9 ESE 17 26 9 14 1020.2 1020.0 0.0
21/01:00am 21.9 20.0 15.3 66 3.9 ESE 19 28 10 15 1020.6 1020.4 0.0
21/12:30am 21.9 20.7 16.1 69 3.5 ESE 17 28 9 15 1021.0 1020.8 0.0
21/12:00am 21.9 20.1 15.9 68 3.6 ESE 20 30 11 16 1021.4 1021.2 0.0
 
Date/Time
EST
Temp
°C
App
Temp
°C
Dew
Point
Rel
Hum
%
Delta-T
°C
Wind Press
QNH
hPa
Press
MSL
hPa
Rain
since 9 am
mm
Dir
 
Spd
km/h
Gust
km/h
Spd
kts
Gust
kts
20/11:30pm 22.0 20.5 16.2 69 3.5 ESE 19 30 10 16 1021.8 1021.6 0.0
20/11:00pm 22.2 20.7 16.4 69 3.5 ESE 19 30 10 16 1022.1 1021.9 0.0
20/10:30pm 22.1 20.3 16.1 69 3.6 ESE 20 35 11 19 1022.2 1022.0 0.0
20/10:00pm 22.2 20.7 16.2 69 3.6 ESE 19 33 10 18 1022.1 1021.9 0.0
20/09:30pm 22.3 20.3 16.4 69 3.6 ESE 22 35 12 19 1022.2 1022.0 0.0
20/09:00pm 22.3 20.8 16.7 70 3.4 ESE 20 35 11 19 1022.1 1021.9 0.0
20/08:30pm 22.3 21.1 17.1 72 3.2 SE 19 28 10 15 1021.8 1021.6 0.0
20/08:00pm 22.3 21.4 16.9 71 3.3 ESE 17 30 9 16 1021.6 1021.4 0.0
20/07:30pm 22.5 21.4 17.3 72 3.2 ESE 19 28 10 15 1021.3 1021.1 0.0
20/07:00pm 22.5 21.4 17.3 72 3.2 ESE 19 30 10 16 1020.9 1020.7 0.0
20/06:30pm 22.5 21.8 17.3 72 3.2 ESE 17 26 9 14 1020.5 1020.3 0.0
20/06:00pm 22.8 21.6 17.1 70 3.5 SE 19 30 10 16 1020.1 1019.9 0.0
20/05:30pm 22.8 22.0 17.1 70 3.5 ESE 17 28 9 15 1019.6 1019.4 0.0
20/05:00pm 23.3 22.4 16.9 67 3.9 SE 17 32 9 17 1019.2 1019.0 0.0
20/04:30pm 23.5 22.7 17.0 67 4.0 SE 17 30 9 16 1018.9 1018.7 0.0
20/04:00pm 24.0 23.2 17.2 65 4.2 SE 17 30 9 16 1018.9 1018.7 0.0
20/03:30pm 24.4 23.5 16.9 63 4.6 SE 17 28 9 15 1019.0 1018.8 0.0
20/03:00pm 24.3 23.6 17.4 65 4.3 SE 17 30 9 16 1019.1 1018.9 0.0
20/02:30pm 25.0 23.7 16.9 60 5.0 SE 19 33 10 18 1019.4 1019.2 0.0
20/02:00pm 24.9 23.4 16.4 59 5.2 SE 19 32 10 17 1019.7 1019.5 0.0
20/01:30pm 25.0 23.7 17.3 62 4.8 SE 20 32 11 17 1020.0 1019.8 0.0
20/01:00pm 25.4 23.7 17.2 60 5.1 SE 22 37 12 20 1020.5 1020.3 0.0
20/12:30pm 26.5 25.0 17.6 58 5.6 SE 22 35 12 19 1020.9 1020.7 0.0
20/12:00pm 26.3 24.9 17.1 57 5.7 SE 20 37 11 20 1021.4 1021.2 0.0
20/11:30am 25.5 23.3 16.9 59 5.3 SE 24 39 13 21 1021.6 1021.4 0.0
20/11:00am 25.5 23.0 17.1 59 5.2 SSE 26 39 14 21 1022.0 1021.8 0.0
20/10:30am 25.3 22.3 16.7 59 5.3 SSE 28 39 15 21 1022.4 1022.2 0.0
20/10:00am 23.9 20.9 16.9 65 4.3 SSE 28 41 15 22 1022.7 1022.5 0.0
20/09:30am 23.7 20.8 16.1 62 4.6 SSE 26 39 14 21 1023.0 1022.8 0.0
20/09:00am 23.6 21.7 16.6 65 4.3 SSE 22 35 12 19 1023.0 1022.8 0.0
20/08:30am 23.8 21.4 16.4 63 4.5 SSE 24 35 13 19 1022.7 1022.5 0.0
20/08:00am 23.9 21.2 14.6 56 5.5 SE 22 33 12 18 1022.6 1022.4 0.0
20/07:30am 23.9 22.5 15.6 59 5.0 SE 17 28 9 15 1022.6 1022.4 0.0

Other Formats:

Comma delimited format used in spreadsheet applications
http://www.bom.gov.au/fwo/IDQ60801/IDQ60801.94367.axf

JavaScript Object Notation format (JSON) in row-major order
http://www.bom.gov.au/fwo/IDQ60801/IDQ60801.94367.json